Time;durP1;ratioP1;P1;durP2;ratioP2;P2;SDS_P1;SDS_P2;PMS_P1;PMS_P2;Temp;Humidity;BMP_temperature;BMP_pressure;BME280_temperature;BME280_humidity;BME280_pressure;Samples;Min_cycle;Max_cycle;Signal;HPM_P1;HPM_P2
2023/07/08 00:01:56;;;;;;;6.10;3.90;;;24.30;43.40;;;;;;5022575;28;21132;-75
2023/07/08 00:04:22;;;;;;;4.40;3.67;;;24.30;43.50;;;;;;5055417;28;20246;-76
2023/07/08 00:06:48;;;;;;;4.83;3.80;;;24.20;43.50;;;;;;5054093;28;20180;-76
2023/07/08 00:09:13;;;;;;;4.83;3.87;;;24.10;43.60;;;;;;5022091;28;20575;-76
2023/07/08 00:11:39;;;;;;;5.23;3.83;;;24.10;43.70;;;;;;5055872;28;20663;-76
2023/07/08 00:14:05;;;;;;;4.87;3.50;;;24.00;43.80;;;;;;5054912;28;20549;-76
2023/07/08 00:16:30;;;;;;;6.00;3.90;;;23.90;44.00;;;;;;5054013;28;20204;-76
2023/07/08 00:18:56;;;;;;;5.27;3.67;;;23.90;43.90;;;;;;5055071;28;20180;-77
2023/07/08 00:21:22;;;;;;;5.57;3.93;;;23.80;44.00;;;;;;5035842;28;20621;-76
2023/07/08 00:23:49;;;;;;;5.23;3.70;;;23.80;44.10;;;;;;5054696;28;20213;-77
2023/07/08 00:26:31;;;;;;;5.83;3.77;;;23.80;44.20;;;;;;5055980;28;20197;-76
2023/07/08 00:28:59;;;;;;;9.30;4.20;;;23.70;44.60;;;;;;5056991;28;20623;-77
2023/07/08 00:31:25;;;;;;;5.23;3.93;;;23.70;44.50;;;;;;5041452;28;20982;-77
2023/07/08 00:33:55;;;;;;;6.10;4.63;;;23.60;44.50;;;;;;5059016;28;20181;-76
2023/07/08 00:36:22;;;;;;;7.50;4.90;;;23.60;44.60;;;;;;5059295;28;20698;-76
2023/07/08 00:38:48;;;;;;;5.17;3.67;;;23.60;44.80;;;;;;5058950;28;20571;-76
2023/07/08 00:41:27;;;;;;;5.83;4.43;;;23.60;44.80;;;;;;5040244;28;20670;-76
2023/07/08 00:43:57;;;;;;;6.47;3.67;;;23.50;45.50;;;;;;5039323;28;20181;-76
2023/07/08 00:46:29;;;;;;;5.07;3.87;;;23.50;45.00;;;;;;5056537;28;20645;-76
2023/07/08 00:49:07;;;;;;;6.40;4.20;;;23.50;45.30;;;;;;5054492;28;20571;-76
2023/07/08 00:51:40;;;;;;;4.90;3.70;;;23.50;45.50;;;;;;5056330;28;20635;-76
2023/07/08 00:54:11;;;;;;;5.00;3.80;;;23.50;45.40;;;;;;5056330;28;20578;-76
2023/07/08 00:56:50;;;;;;;6.63;4.90;;;23.50;45.90;;;;;;5056139;28;20595;-77
2023/07/08 00:59:24;;;;;;;5.20;4.13;;;23.50;46.00;;;;;;5055081;28;20657;-76
2023/07/08 01:01:51;;;;;;;5.20;4.10;;;23.50;46.10;;;;;;5037323;28;20647;-76
2023/07/08 01:04:24;;;;;;;6.07;4.37;;;23.50;45.70;;;;;;5055766;28;21557;-77
2023/07/08 01:06:57;;;;;;;7.30;3.50;;;23.50;46.00;;;;;;5038356;28;21182;-76
2023/07/08 01:09:28;;;;;;;4.70;3.53;;;23.50;46.10;;;;;;5039138;28;21110;-77
2023/07/08 01:11:58;;;;;;;5.13;3.50;;;23.50;45.90;;;;;;5038784;28;20642;-75
2023/07/08 01:14:31;;;;;;;6.50;4.10;;;23.50;46.00;;;;;;5047868;28;20639;-76
2023/07/08 01:17:13;;;;;;;5.03;3.50;;;23.50;46.20;;;;;;5053652;28;20897;-76
2023/07/08 01:19:44;;;;;;;6.37;4.27;;;23.50;46.10;;;;;;5037684;28;20610;-76
2023/07/08 01:22:10;;;;;;;5.03;3.70;;;23.50;46.40;;;;;;5036925;28;21114;-77
2023/07/08 01:24:39;;;;;;;5.77;4.07;;;23.50;46.40;;;;;;5055474;28;20643;-76
2023/07/08 01:27:07;;;;;;;5.50;3.57;;;23.50;46.50;;;;;;5054307;28;20590;-76
2023/07/08 01:29:34;;;;;;;4.43;3.70;;;23.40;46.60;;;;;;5038623;28;20603;-77
2023/07/08 01:32:02;;;;;;;7.10;3.63;;;23.40;46.80;;;;;;5038556;28;20730;-77
2023/07/08 01:34:36;;;;;;;4.03;3.33;;;23.40;46.80;;;;;;5055686;28;20568;-76
2023/07/08 01:37:04;;;;;;;4.53;3.53;;;23.40;46.90;;;;;;5036399;28;20595;-76
2023/07/08 01:39:32;;;;;;;4.50;3.50;;;23.40;47.00;;;;;;5036900;28;20579;-76
2023/07/08 01:41:58;;;;;;;4.50;3.67;;;23.40;47.00;;;;;;5053261;28;20623;-76
2023/07/08 01:44:34;;;;;;;4.77;3.53;;;23.40;47.00;;;;;;5053307;28;20587;-76
2023/07/08 01:47:12;;;;;;;6.33;3.73;;;23.30;47.20;;;;;;5051987;28;20632;-76
2023/07/08 01:49:40;;;;;;;5.13;4.03;;;23.30;47.20;;;;;;5035716;28;20575;-75
2023/07/08 01:52:07;;;;;;;6.27;3.97;;;23.30;47.20;;;;;;5052989;28;20590;-76
2023/07/08 01:54:33;;;;;;;4.97;3.80;;;23.30;47.30;;;;;;5037208;28;20587;-77
2023/07/08 01:57:00;;;;;;;5.30;3.47;;;23.30;47.30;;;;;;5038987;28;20606;-77
2023/07/08 01:59:26;;;;;;;5.73;3.77;;;23.20;47.50;;;;;;5039001;28;20311;-77
2023/07/08 02:01:55;;;;;;;5.70;3.73;;;23.20;47.70;;;;;;5022119;28;20671;-77
2023/07/08 02:04:23;;;;;;;4.80;3.40;;;23.20;47.80;;;;;;5054883;28;20580;-76
2023/07/08 02:06:57;;;;;;;5.70;4.23;;;23.20;47.80;;;;;;5037781;28;20598;-77
2023/07/08 02:09:24;;;;;;;4.93;4.00;;;23.20;48.30;;;;;;5054681;28;20621;-76
2023/07/08 02:11:51;;;;;;;5.40;4.00;;;23.20;48.00;;;;;;5054978;28;20634;-76
2023/07/08 02:14:17;;;;;;;6.60;3.83;;;23.10;48.00;;;;;;5022031;28;21150;-77
2023/07/08 02:16:42;;;;;;;5.40;3.67;;;23.10;48.30;;;;;;5054744;28;20588;-77
2023/07/08 02:19:10;;;;;;;4.73;3.10;;;23.10;48.10;;;;;;5054327;28;20550;-77
2023/07/08 02:21:36;;;;;;;4.97;3.60;;;23.10;48.20;;;;;;5038234;28;20803;-77
2023/07/08 02:24:02;;;;;;;6.17;4.40;;;23.10;48.40;;;;;;5056216;28;20563;-77
2023/07/08 02:26:31;;;;;;;7.23;3.97;;;23.10;48.30;;;;;;5055140;28;20618;-77
2023/07/08 02:28:58;;;;;;;4.30;3.53;;;23.10;48.80;;;;;;5055365;28;20948;-76
2023/07/08 02:31:25;;;;;;;3.70;2.40;;;23.10;48.40;;;;;;5053795;28;21084;-77
2023/07/08 02:33:52;;;;;;;5.10;3.17;;;23.10;48.40;;;;;;5054135;28;20575;-77
2023/07/08 02:36:18;;;;;;;4.07;3.60;;;23.10;48.50;;;;;;5036615;28;20616;-76
2023/07/08 02:38:44;;;;;;;5.53;3.60;;;23.10;48.80;;;;;;5053939;28;20913;-77
2023/07/08 02:41:11;;;;;;;4.33;3.10;;;23.10;48.70;;;;;;5037647;28;20611;-77
2023/07/08 02:43:39;;;;;;;4.50;2.80;;;23.00;48.80;;;;;;5038117;28;20224;-77
2023/07/08 02:46:05;;;;;;;4.70;3.00;;;23.00;48.80;;;;;;5041803;28;20627;-76
2023/07/08 02:48:31;;;;;;;5.90;3.33;;;23.00;48.80;;;;;;5042638;28;20721;-77
2023/07/08 02:51:01;;;;;;;4.00;3.00;;;23.00;48.80;;;;;;5041181;28;20232;-77
2023/07/08 02:53:28;;;;;;;4.63;2.80;;;23.00;49.10;;;;;;5040691;28;20177;-77
2023/07/08 02:55:54;;;;;;;6.33;3.40;;;22.90;48.90;;;;;;5055339;28;20619;-77
2023/07/08 02:58:19;;;;;;;4.50;3.10;;;22.90;49.00;;;;;;5059425;28;20651;-77
2023/07/08 03:00:45;;;;;;;4.40;3.27;;;22.90;49.10;;;;;;5059650;28;20212;-77
2023/07/08 03:03:11;;;;;;;4.40;2.50;;;22.80;49.00;;;;;;5060457;28;20641;-77
2023/07/08 03:05:36;;;;;;;3.90;2.90;;;22.80;49.20;;;;;;5059493;28;20231;-76
2023/07/08 03:08:02;;;;;;;4.00;3.00;;;22.70;49.20;;;;;;5060254;28;20184;-76
2023/07/08 03:10:28;;;;;;;4.70;3.47;;;22.70;49.30;;;;;;5043433;28;20212;-76
2023/07/08 03:12:54;;;;;;;4.47;3.13;;;22.70;49.40;;;;;;5060109;28;20173;-77
2023/07/08 03:15:19;;;;;;;5.23;2.70;;;22.60;49.40;;;;;;5060238;28;20193;-76
2023/07/08 03:17:46;;;;;;;4.43;2.40;;;22.60;49.50;;;;;;5058339;28;20173;-77
2023/07/08 03:20:12;;;;;;;3.30;2.30;;;22.50;49.60;;;;;;5060363;28;20659;-77
2023/07/08 03:22:38;;;;;;;5.40;3.30;;;22.40;49.70;;;;;;5035387;28;20623;-76
2023/07/08 03:25:04;;;;;;;4.13;3.03;;;22.40;49.90;;;;;;5035967;28;20623;-76
2023/07/08 03:27:30;;;;;;;5.10;2.40;;;22.30;50.00;;;;;;5051651;28;20185;-76
2023/07/08 03:29:56;;;;;;;3.90;2.47;;;22.30;50.80;;;;;;5035669;28;20656;-76
2023/07/08 03:32:22;;;;;;;5.00;3.13;;;22.30;50.20;;;;;;5034879;28;21131;-76
2023/07/08 03:34:47;;;;;;;3.80;2.60;;;22.30;50.30;;;;;;5038982;28;20200;-76
2023/07/08 03:37:13;;;;;;;4.37;3.20;;;22.30;50.40;;;;;;5055526;28;20169;-76
2023/07/08 03:39:39;;;;;;;5.57;2.50;;;22.30;50.50;;;;;;5056673;28;20239;-77
2023/07/08 03:42:05;;;;;;;3.90;3.27;;;22.40;50.70;;;;;;5039421;28;20172;-77
2023/07/08 03:44:31;;;;;;;3.50;2.67;;;22.40;51.30;;;;;;5056913;28;20699;-76
2023/07/08 03:46:56;;;;;;;3.80;2.70;;;22.40;50.90;;;;;;5056381;28;20579;-76
2023/07/08 03:49:23;;;;;;;5.97;2.60;;;22.40;51.10;;;;;;5038558;28;20187;-77
2023/07/08 03:51:53;;;;;;;3.90;2.37;;;22.50;51.30;;;;;;5054982;28;20723;-77
2023/07/08 03:54:21;;;;;;;3.80;2.97;;;22.50;51.30;;;;;;5053960;28;20908;-76
2023/07/08 03:56:47;;;;;;;3.67;2.77;;;22.60;51.20;;;;;;5037617;28;20606;-76
2023/07/08 03:59:15;;;;;;;3.43;2.73;;;22.60;51.20;;;;;;5039584;28;20960;-76
2023/07/08 04:01:41;;;;;;;2.90;2.30;;;22.60;51.20;;;;;;5060652;28;20580;-76
2023/07/08 04:04:12;;;;;;;4.93;2.70;;;22.60;51.50;;;;;;5061616;28;20576;-76
2023/07/08 04:06:38;;;;;;;3.07;2.23;;;22.70;51.50;;;;;;5043471;28;20735;-76
2023/07/08 04:09:04;;;;;;;3.80;2.23;;;22.70;51.50;;;;;;5059103;28;21123;-76
2023/07/08 04:11:30;;;;;;;3.97;2.37;;;22.70;51.30;;;;;;5059347;28;21198;-76
2023/07/08 04:13:55;;;;;;;7.73;3.20;;;22.70;51.30;;;;;;5039748;28;20583;-76
2023/07/08 04:16:30;;;;;;;4.97;2.30;;;22.70;51.50;;;;;;5056382;28;20611;-76
2023/07/08 04:18:56;;;;;;;2.73;1.93;;;22.70;51.50;;;;;;5056399;28;20168;-76
2023/07/08 04:21:24;;;;;;;3.03;2.30;;;22.70;51.30;;;;;;5038762;28;20567;-76
2023/07/08 04:23:51;;;;;;;4.00;2.30;;;22.70;51.60;;;;;;5056637;28;20575;-76
2023/07/08 04:26:18;;;;;;;4.90;2.93;;;22.70;51.70;;;;;;5020176;28;20650;-76
2023/07/08 04:28:44;;;;;;;4.10;2.47;;;22.70;51.70;;;;;;5053479;28;20643;-76
2023/07/08 04:31:10;;;;;;;4.87;2.63;;;22.70;51.70;;;;;;5035789;28;20630;-76
2023/07/08 04:33:35;;;;;;;7.67;3.73;;;22.70;51.80;;;;;;5058384;28;20342;-76
2023/07/08 04:36:02;;;;;;;3.63;2.83;;;22.70;51.80;;;;;;5057980;28;20204;-76
2023/07/08 04:38:28;;;;;;;4.43;2.70;;;22.80;52.00;;;;;;5057648;28;20223;-76
2023/07/08 04:40:54;;;;;;;5.57;2.97;;;22.80;52.40;;;;;;5041883;28;20591;-76
2023/07/08 04:43:21;;;;;;;4.03;2.97;;;22.80;52.50;;;;;;5058089;28;20583;-76
2023/07/08 04:45:52;;;;;;;3.10;2.30;;;23.00;52.30;;;;;;5040772;28;20603;-77
2023/07/08 04:48:21;;;;;;;3.73;2.50;;;23.00;52.40;;;;;;5056025;28;20630;-76
2023/07/08 04:50:49;;;;;;;5.23;2.60;;;23.10;52.30;;;;;;5056382;28;20634;-76
2023/07/08 04:53:15;;;;;;;4.47;2.10;;;23.10;52.20;;;;;;5059173;28;20580;-77
2023/07/08 04:55:50;;;;;;;3.20;2.03;;;23.20;52.30;;;;;;5021741;28;20627;-77
2023/07/08 04:58:16;;;;;;;3.80;2.30;;;23.20;52.20;;;;;;5037230;28;20668;-76
2023/07/08 05:00:42;;;;;;;2.80;2.17;;;23.30;52.10;;;;;;5037697;28;20596;-76
2023/07/08 05:03:08;;;;;;;3.53;2.23;;;23.40;52.30;;;;;;5037748;28;20185;-77
2023/07/08 05:05:33;;;;;;;4.43;2.30;;;23.50;52.20;;;;;;5038890;28;20194;-76
2023/07/08 05:08:00;;;;;;;5.73;2.50;;;23.50;52.10;;;;;;5039311;28;20166;-76
2023/07/08 05:10:26;;;;;;;5.70;2.20;;;23.60;52.80;;;;;;5035251;28;20789;-76
2023/07/08 05:12:51;;;;;;;4.33;2.60;;;23.60;52.00;;;;;;5029571;28;20585;-75
2023/07/08 05:15:18;;;;;;;3.80;2.40;;;23.60;52.00;;;;;;5047147;28;20204;-75
2023/07/08 05:17:43;;;;;;;3.17;2.20;;;23.70;52.10;;;;;;5030719;28;20162;-75
2023/07/08 05:20:12;;;;;;;3.40;1.60;;;23.70;52.00;;;;;;5031560;28;20671;-75
2023/07/08 05:22:38;;;;;;;3.90;2.10;;;23.80;52.10;;;;;;5030797;28;20197;-76
2023/07/08 05:25:05;;;;;;;3.90;2.27;;;23.90;52.10;;;;;;5030175;28;20616;-76
2023/07/08 05:27:33;;;;;;;4.43;2.50;;;24.00;52.20;;;;;;5029431;28;20181;-76
2023/07/08 05:30:00;;;;;;;3.17;2.23;;;24.20;52.30;;;;;;5030216;28;20608;-75
2023/07/08 05:32:27;;;;;;;4.00;2.90;;;24.30;52.10;;;;;;5031086;28;20603;-75
2023/07/08 05:34:53;;;;;;;3.60;2.50;;;24.30;51.90;;;;;;5031190;28;20930;-75
2023/07/08 05:37:21;;;;;;;8.43;2.40;;;24.50;52.00;;;;;;5030948;28;20960;-75
2023/07/08 05:39:47;;;;;;;2.97;1.90;;;24.50;51.80;;;;;;5029890;28;20655;-75
2023/07/08 05:42:12;;;;;;;5.40;2.93;;;24.60;51.70;;;;;;5045739;28;20968;-75
2023/07/08 05:44:38;;;;;;;3.57;2.17;;;24.70;51.70;;;;;;5028801;28;20202;-75
2023/07/08 05:47:04;;;;;;;5.13;2.23;;;24.80;51.70;;;;;;5029486;28;20181;-75
2023/07/08 05:49:30;;;;;;;6.90;2.77;;;24.90;51.60;;;;;;5031006;28;20178;-75
2023/07/08 05:51:55;;;;;;;5.60;2.43;;;25.00;52.10;;;;;;5012693;28;20857;-78
2023/07/08 05:54:21;;;;;;;3.30;2.40;;;25.10;51.50;;;;;;5030599;28;20162;-77
2023/07/08 05:56:46;;;;;;;3.17;2.13;;;25.30;51.50;;;;;;5012293;28;20176;-78
2023/07/08 05:59:12;;;;;;;5.80;3.00;;;25.50;51.30;;;;;;4996674;28;20319;-77
2023/07/08 06:01:38;;;;;;;4.83;2.50;;;25.60;51.10;;;;;;5033331;28;20180;-77
2023/07/08 06:04:04;;;;;;;4.13;2.30;;;25.90;51.20;;;;;;5049245;28;20177;-78
2023/07/08 06:06:30;;;;;;;2.57;1.80;;;26.20;51.50;;;;;;5049195;28;20200;-78
2023/07/08 06:08:55;;;;;;;4.27;2.77;;;26.80;52.00;;;;;;5050361;28;20169;-77
2023/07/08 06:11:21;;;;;;;2.40;1.70;;;27.60;51.90;;;;;;5050258;28;21175;-78
2023/07/08 06:13:47;;;;;;;4.20;2.10;;;28.40;52.20;;;;;;5049457;28;20169;-77
2023/07/08 06:16:14;;;;;;;4.60;2.40;;;29.30;51.00;;;;;;5048382;28;20616;-78
2023/07/08 06:18:39;;;;;;;3.50;2.30;;;30.00;50.80;;;;;;5050030;28;20571;-77
2023/07/08 06:21:06;;;;;;;3.07;2.30;;;30.90;50.60;;;;;;5048691;28;20575;-77
2023/07/08 06:23:31;;;;;;;2.73;1.50;;;31.80;50.60;;;;;;5032528;28;20233;-77
2023/07/08 06:25:57;;;;;;;2.70;1.90;;;32.80;50.20;;;;;;5048649;28;20613;-77
2023/07/08 06:28:23;;;;;;;3.50;2.13;;;33.40;47.00;;;;;;5048891;28;20183;-77
2023/07/08 06:30:49;;;;;;;3.30;2.20;;;34.00;47.20;;;;;;5049129;28;20238;-77
2023/07/08 06:33:15;;;;;;;2.90;1.90;;;34.60;45.20;;;;;;5032270;28;20173;-78
2023/07/08 06:35:41;;;;;;;4.70;2.00;;;34.70;44.40;;;;;;5049621;28;20649;-77
2023/07/08 06:38:07;;;;;;;2.93;2.00;;;35.10;44.30;;;;;;5048628;28;20580;-77
2023/07/08 06:40:34;;;;;;;2.90;1.83;;;35.50;42.70;;;;;;5048722;28;20655;-77
2023/07/08 06:43:01;;;;;;;3.07;2.00;;;35.80;42.50;;;;;;5048748;28;20181;-77
2023/07/08 06:45:42;;;;;;;4.07;2.00;;;36.30;42.40;;;;;;5032200;28;20623;-78
2023/07/08 06:48:08;;;;;;;3.73;2.03;;;36.60;41.50;;;;;;5048086;28;20583;-77
2023/07/08 06:50:33;;;;;;;3.50;1.83;;;37.10;41.30;;;;;;5049813;28;20619;-77
2023/07/08 06:52:59;;;;;;;3.27;2.90;;;37.40;39.70;;;;;;5049524;28;20157;-77
2023/07/08 06:55:25;;;;;;;3.40;2.40;;;37.70;39.10;;;;;;5032154;28;20184;-77
2023/07/08 06:57:51;;;;;;;3.20;2.10;;;37.90;38.00;;;;;;5048383;28;20558;-77
2023/07/08 07:00:17;;;;;;;3.50;2.20;;;37.90;37.70;;;;;;5048507;28;20223;-77
2023/07/08 07:02:43;;;;;;;3.33;2.77;;;38.00;35.90;;;;;;5048055;28;20579;-77
2023/07/08 07:05:09;;;;;;;3.83;2.73;;;37.70;35.40;;;;;;5032200;28;20262;-77
2023/07/08 07:07:35;;;;;;;3.50;2.53;;;37.50;34.60;;;;;;5049261;28;20569;-76
2023/07/08 07:10:00;;;;;;;2.53;2.20;;;37.20;34.80;;;;;;5052099;28;20575;-77
2023/07/08 07:12:26;;;;;;;3.50;2.60;;;36.90;35.20;;;;;;5051758;28;20180;-76
2023/07/08 07:14:53;;;;;;;3.27;2.93;;;37.00;35.70;;;;;;5052462;28;20603;-76
2023/07/08 07:17:23;;;;;;;3.30;3.00;;;37.30;36.10;;;;;;5051057;28;20206;-77
2023/07/08 07:19:49;;;;;;;3.00;2.70;;;37.50;35.70;;;;;;5049791;28;20576;-77
2023/07/08 07:22:15;;;;;;;4.47;2.57;;;37.70;34.80;;;;;;5051910;28;20574;-77
2023/07/08 07:24:41;;;;;;;2.73;2.33;;;37.70;35.50;;;;;;5053109;28;20815;-77
2023/07/08 07:27:08;;;;;;;3.20;2.37;;;37.80;35.00;;;;;;5051607;28;20615;-77
2023/07/08 07:29:48;;;;;;;2.87;2.10;;;37.80;35.10;;;;;;5052938;28;20180;-77
2023/07/08 07:32:16;;;;;;;2.97;2.50;;;37.80;35.10;;;;;;5031214;28;20612;-77
2023/07/08 07:34:42;;;;;;;4.80;2.33;;;38.00;35.10;;;;;;5034499;28;20626;-76
2023/07/08 07:37:13;;;;;;;3.63;2.70;;;38.00;34.40;;;;;;5048659;28;20579;-77
2023/07/08 07:39:39;;;;;;;3.90;3.40;;;38.10;34.50;;;;;;5050903;28;21219;-76
2023/07/08 07:42:05;;;;;;;8.60;3.20;;;37.80;33.80;;;;;;5051793;28;20641;-76
2023/07/08 07:44:31;;;;;;;3.80;2.87;;;37.70;34.20;;;;;;5051523;28;21521;-77
2023/07/08 07:46:57;;;;;;;4.00;2.70;;;38.10;34.80;;;;;;5052746;28;20585;-76
2023/07/08 07:49:22;;;;;;;3.37;2.83;;;38.40;34.30;;;;;;5053241;28;20641;-77
2023/07/08 07:51:48;;;;;;;3.60;3.13;;;38.50;33.80;;;;;;5035054;28;20246;-76
2023/07/08 07:54:15;;;;;;;6.00;3.40;;;38.50;33.50;;;;;;5051497;28;20239;-77
2023/07/08 07:56:41;;;;;;;3.33;3.00;;;38.70;33.40;;;;;;5051090;28;20201;-76
2023/07/08 07:59:06;;;;;;;4.13;3.00;;;38.80;33.00;;;;;;5052935;28;20559;-76
2023/07/08 08:01:32;;;;;;;3.80;2.70;;;39.00;33.40;;;;;;5052631;28;20175;-77
2023/07/08 08:03:58;;;;;;;4.23;3.13;;;39.50;34.10;;;;;;5051741;28;20203;-77
2023/07/08 08:06:23;;;;;;;3.80;3.10;;;39.90;33.30;;;;;;5052148;28;20677;-77
2023/07/08 08:08:50;;;;;;;3.50;3.20;;;40.10;32.40;;;;;;5051059;28;20196;-76
2023/07/08 08:11:16;;;;;;;4.00;3.27;;;40.10;31.50;;;;;;5051286;28;20403;-77
2023/07/08 08:13:42;;;;;;;5.00;3.60;;;40.00;31.50;;;;;;5052002;28;20959;-77
2023/07/08 08:16:08;;;;;;;4.77;3.10;;;40.10;31.70;;;;;;5049909;28;20192;-77
2023/07/08 08:18:34;;;;;;;3.40;2.87;;;39.90;30.70;;;;;;5051052;28;20575;-77
2023/07/08 08:21:00;;;;;;;4.03;2.53;;;39.80;31.00;;;;;;5051941;28;20678;-77
2023/07/08 08:23:26;;;;;;;5.37;3.27;;;39.80;31.40;;;;;;5034420;28;20666;-77
2023/07/08 08:25:52;;;;;;;3.93;3.53;;;39.40;30.40;;;;;;5050859;28;20701;-77
2023/07/08 08:28:18;;;;;;;4.03;3.63;;;38.90;30.10;;;;;;5033886;28;20185;-77
2023/07/08 08:30:48;;;;;;;4.00;3.20;;;38.30;30.20;;;;;;5051918;28;20204;-77
2023/07/08 08:33:14;;;;;;;3.50;3.10;;;38.20;31.40;;;;;;5051051;28;20267;-76
2023/07/08 08:35:39;;;;;;;3.40;3.10;;;38.40;31.50;;;;;;5050749;28;21472;-77
2023/07/08 08:38:05;;;;;;;4.60;3.20;;;38.30;31.40;;;;;;5050567;28;20177;-77
2023/07/08 08:40:32;;;;;;;4.87;3.37;;;38.30;31.50;;;;;;5053047;28;20916;-77
2023/07/08 08:43:02;;;;;;;3.60;2.80;;;38.50;32.00;;;;;;5051721;28;20173;-77
2023/07/08 08:45:32;;;;;;;3.80;2.87;;;39.00;32.20;;;;;;5052060;28;20595;-77
2023/07/08 08:48:02;;;;;;;4.50;2.90;;;39.50;33.70;;;;;;5033284;28;20583;-77
2023/07/08 08:50:38;;;;;;;3.37;2.87;;;40.10;31.70;;;;;;5051858;28;20619;-77
2023/07/08 08:53:09;;;;;;;3.50;2.70;;;40.30;30.50;;;;;;5049938;28;20578;-77
2023/07/08 08:55:35;;;;;;;4.13;3.63;;;40.40;30.40;;;;;;5049987;28;20619;-77
2023/07/08 08:58:12;;;;;;;3.53;3.10;;;40.30;29.80;;;;;;5051291;28;20982;-77
2023/07/08 09:00:54;;;;;;;4.30;2.97;;;40.20;29.50;;;;;;5050590;28;20191;-77
2023/07/08 09:03:31;;;;;;;4.40;3.53;;;40.00;29.60;;;;;;5051383;28;20583;-77
2023/07/08 09:06:00;;;;;;;3.70;2.70;;;40.00;29.70;;;;;;5050419;28;20686;-77
2023/07/08 09:08:35;;;;;;;3.83;3.40;;;40.30;30.00;;;;;;5049854;28;20584;-77
2023/07/08 09:11:33;;;;;;;5.30;3.47;;;40.30;29.20;;;;;;5050373;28;20638;-80
2023/07/08 09:13:59;;;;;;;4.70;3.37;;;40.20;28.80;;;;;;5051142;28;20985;-79
2023/07/08 09:16:28;;;;;;;3.37;2.83;;;40.10;29.30;;;;;;5050472;28;20678;-79
2023/07/08 09:19:04;;;;;;;4.47;3.47;;;39.90;29.20;;;;;;5048795;28;20727;-79
2023/07/08 09:21:55;;;;;;;3.30;2.77;;;39.80;28.90;;;;;;5049466;28;20567;-79
2023/07/08 09:24:49;;;;;;;5.40;3.30;;;39.70;29.10;;;;;;5031465;28;20599;-79
2023/07/08 09:27:15;;;;;;;7.87;3.00;;;39.60;29.30;;;;;;5029364;28;21321;-79
2023/07/08 09:29:41;;;;;;;3.83;2.83;;;39.90;29.50;;;;;;5049099;28;20649;-80
2023/07/08 09:32:22;;;;;;;5.60;3.13;;;40.10;29.10;;;;;;5031350;28;20215;-80
2023/07/08 09:35:01;;;;;;;5.17;2.97;;;39.90;28.20;;;;;;5049796;28;20189;-79
2023/07/08 09:37:37;;;;;;;3.60;2.90;;;39.70;28.60;;;;;;5050365;28;20915;-79
2023/07/08 09:40:17;;;;;;;4.33;3.17;;;39.70;28.80;;;;;;5049805;28;20583;-79
2023/07/08 09:42:46;;;;;;;4.73;3.27;;;39.80;29.40;;;;;;5049530;28;20653;-79
2023/07/08 09:45:18;;;;;;;4.60;3.70;;;40.10;29.60;;;;;;5032856;28;20611;-79
2023/07/08 09:47:45;;;;;;;4.13;2.50;;;40.60;29.50;;;;;;5049321;28;20603;-79
2023/07/08 09:50:24;;;;;;;5.23;3.57;;;40.90;29.30;;;;;;5050768;28;21184;-79
2023/07/08 09:52:52;;;;;;;4.37;2.50;;;41.20;29.10;;;;;;5032885;28;20970;-78
2023/07/08 09:55:18;;;;;;;2.83;2.50;;;41.40;28.80;;;;;;5049326;28;20694;-78
2023/07/08 09:57:48;;;;;;;6.07;3.43;;;41.50;28.70;;;;;;5049951;28;20670;-79
2023/07/08 10:00:25;;;;;;;3.20;2.23;;;41.50;28.30;;;;;;5049348;28;20169;-78
2023/07/08 10:02:55;;;;;;;3.97;3.00;;;41.50;28.30;;;;;;5049478;28;20575;-78
2023/07/08 10:05:42;;;;;;;3.47;2.70;;;41.30;28.20;;;;;;5032479;28;20607;-78
2023/07/08 10:08:41;;;;;;;4.77;2.93;;;41.10;27.90;;;;;;5049043;28;20583;-78
2023/07/08 10:11:29;;;;;;;3.90;2.77;;;40.80;27.70;;;;;;5049732;28;20642;-78
2023/07/08 10:14:01;;;;;;;3.77;2.80;;;40.70;28.10;;;;;;5032733;28;20588;-78
2023/07/08 10:16:33;;;;;;;3.70;2.80;;;40.70;28.40;;;;;;5049989;28;20676;-78
2023/07/08 10:18:59;;;;;;;5.87;3.80;;;40.80;28.40;;;;;;5050564;28;20667;-78
2023/07/08 10:21:42;;;;;;;4.97;3.07;;;40.70;28.20;;;;;;5048658;28;20767;-78
2023/07/08 10:24:34;;;;;;;3.50;2.47;;;40.70;28.60;;;;;;5049414;28;20583;-77
2023/07/08 10:27:29;;;;;;;5.83;3.20;;;41.00;28.70;;;;;;5048248;28;21067;-79
2023/07/08 10:30:03;;;;;;;5.53;3.10;;;41.40;28.50;;;;;;5050360;28;20594;-78
2023/07/08 10:33:13;;;;;;;4.43;2.87;;;41.40;28.30;;;;;;5031826;28;21181;-77
2023/07/08 10:36:09;;;;;;;4.53;2.83;;;41.40;28.20;;;;;;5042410;28;20723;-78
2023/07/08 10:38:56;;;;;;;6.10;2.90;;;41.70;28.70;;;;;;5035215;28;20722;-79
2023/07/08 10:41:27;;;;;;;5.17;2.63;;;42.20;28.50;;;;;;5041213;28;21143;-79
2023/07/08 10:44:04;;;;;;;5.90;2.93;;;42.30;27.90;;;;;;4995450;28;20592;-80
2023/07/08 10:46:35;;;;;;;3.90;2.77;;;42.30;27.80;;;;;;5044830;28;21036;-80
2023/07/08 10:49:16;;;;;;;3.47;2.90;;;42.50;27.90;;;;;;5048153;28;20595;-79
2023/07/08 10:51:54;;;;;;;4.70;3.20;;;42.60;27.50;;;;;;5048229;28;20627;-79
2023/07/08 10:54:58;;;;;;;4.23;2.80;;;42.50;27.40;;;;;;5044680;28;20592;-80
2023/07/08 10:57:23;;;;;;;3.07;2.43;;;42.40;26.60;;;;;;5029335;28;20586;-81
2023/07/08 10:59:49;;;;;;;4.27;3.20;;;42.40;27.40;;;;;;5029736;28;20564;-82
2023/07/08 11:02:53;;;;;;;4.27;3.20;;;42.40;27.40;;;;;;5015914;28;20214;-80
2023/07/08 11:05:36;;;;;;;5.77;2.70;;;42.50;27.40;;;;;;5043055;28;20311;-80
2023/07/08 11:08:18;;;;;;;6.40;3.20;;;42.40;27.30;;;;;;5048337;28;20659;-80
2023/07/08 11:10:54;;;;;;;3.60;2.30;;;42.60;27.30;;;;;;5031350;28;20636;-76
2023/07/08 11:13:23;;;;;;;3.00;2.33;;;42.50;26.90;;;;;;5029777;28;20573;-77
2023/07/08 11:15:56;;;;;;;4.50;3.57;;;42.40;26.80;;;;;;5028243;28;20612;-77
2023/07/08 11:18:22;;;;;;;4.70;3.20;;;42.20;26.80;;;;;;5027903;28;20585;-77
2023/07/08 11:20:57;;;;;;;3.90;2.20;;;42.00;26.80;;;;;;5011966;28;20920;-77
2023/07/08 11:23:32;;;;;;;4.27;2.80;;;41.90;27.10;;;;;;5029780;28;20169;-76
2023/07/08 11:26:23;;;;;;;4.07;2.80;;;42.20;27.50;;;;;;5027984;28;20599;-76
2023/07/08 11:28:52;;;;;;;5.00;2.80;;;42.40;27.20;;;;;;5028018;28;20675;-76
2023/07/08 11:31:19;;;;;;;4.07;2.70;;;42.20;27.10;;;;;;5011326;28;21282;-76
2023/07/08 11:33:46;;;;;;;3.60;3.10;;;42.30;27.20;;;;;;5029921;28;20580;-74
2023/07/08 11:36:14;;;;;;;4.30;3.07;;;42.50;27.00;;;;;;5046409;28;21205;-74
2023/07/08 11:38:50;;;;;;;3.60;3.10;;;42.40;26.70;;;;;;5048289;28;20560;-76
2023/07/08 11:41:20;;;;;;;5.27;3.37;;;42.40;26.80;;;;;;5031301;28;21119;-77
2023/07/08 11:43:52;;;;;;;5.57;3.13;;;42.40;27.30;;;;;;5049836;28;20580;-78
2023/07/08 11:46:21;;;;;;;3.53;2.47;;;42.40;26.90;;;;;;5049194;28;20607;-78
2023/07/08 11:48:50;;;;;;;4.50;2.80;;;42.10;26.70;;;;;;5049234;28;21131;-78
2023/07/08 11:51:31;;;;;;;5.17;3.33;;;41.80;26.60;;;;;;5047232;28;21174;-77
2023/07/08 11:54:18;;;;;;;6.10;3.80;;;41.50;26.60;;;;;;5031905;28;20595;-77
2023/07/08 11:57:00;;;;;;;3.20;2.30;;;41.20;26.80;;;;;;5052012;28;20595;-77
2023/07/08 11:59:32;;;;;;;4.10;2.67;;;40.90;27.00;;;;;;5050372;28;21131;-77
2023/07/08 12:02:13;;;;;;;4.43;3.40;;;40.90;27.00;;;;;;5033019;28;20595;-77
2023/07/08 12:05:02;;;;;;;4.57;2.63;;;40.80;27.10;;;;;;5033102;28;20591;-77
2023/07/08 12:07:32;;;;;;;3.93;2.87;;;40.70;27.30;;;;;;5049007;28;20623;-77
2023/07/08 12:10:04;;;;;;;6.80;2.40;;;40.60;27.20;;;;;;5033137;28;20595;-77
2023/07/08 12:12:34;;;;;;;5.57;3.50;;;40.50;27.50;;;;;;5049024;28;21159;-77
2023/07/08 12:15:09;;;;;;;4.10;2.70;;;40.20;26.90;;;;;;5050123;28;20661;-77
2023/07/08 12:17:40;;;;;;;3.60;2.87;;;40.00;27.20;;;;;;5033752;28;20597;-77
2023/07/08 12:20:34;;;;;;;5.77;3.17;;;39.90;27.30;;;;;;5052797;28;20579;-77
2023/07/08 12:23:00;;;;;;;8.07;3.80;;;39.80;27.10;;;;;;5051917;28;20587;-77
2023/07/08 12:25:34;;;;;;;5.80;4.03;;;39.60;26.80;;;;;;5034624;28;20714;-77
2023/07/08 12:28:01;;;;;;;4.87;2.63;;;39.40;27.10;;;;;;5050791;28;20578;-77
2023/07/08 12:30:28;;;;;;;5.17;3.30;;;39.40;27.50;;;;;;5017951;28;21026;-77
2023/07/08 12:32:55;;;;;;;4.27;2.50;;;39.30;27.30;;;;;;5051759;28;20580;-77
2023/07/08 12:35:27;;;;;;;4.10;3.17;;;39.30;27.60;;;;;;5052269;28;20603;-77
2023/07/08 12:37:57;;;;;;;4.50;3.20;;;39.30;27.80;;;;;;5050280;28;20598;-77
2023/07/08 12:40:24;;;;;;;6.73;3.60;;;39.30;27.70;;;;;;5051015;28;20587;-77
2023/07/08 12:42:50;;;;;;;3.90;2.90;;;39.30;27.90;;;;;;5052130;28;20631;-77
2023/07/08 12:45:19;;;;;;;3.63;3.10;;;39.20;28.00;;;;;;5050830;28;21019;-77
2023/07/08 12:47:46;;;;;;;3.90;2.83;;;39.10;28.10;;;;;;5050551;28;20195;-77
2023/07/08 12:50:12;;;;;;;5.40;2.83;;;38.90;27.90;;;;;;5051968;28;21118;-77
2023/07/08 12:52:39;;;;;;;4.90;3.00;;;38.70;27.90;;;;;;5050575;28;20678;-77
2023/07/08 12:55:05;;;;;;;5.70;3.37;;;38.50;28.10;;;;;;5051910;28;20599;-77
2023/07/08 12:57:32;;;;;;;5.53;3.37;;;38.30;28.10;;;;;;5050941;28;20603;-77
2023/07/08 12:59:58;;;;;;;6.40;4.97;;;38.00;28.00;;;;;;5033516;28;20587;-77
2023/07/08 13:02:27;;;;;;;6.73;3.37;;;37.80;28.30;;;;;;5033574;28;20579;-77